createdAt,value
2023-03-25T00:00:15.969Z,1.05
2023-03-25T00:02:44.982Z,1.10
2023-03-25T00:05:12.660Z,1.45
2023-03-25T00:07:38.845Z,1.13
2023-03-25T00:10:05.333Z,1.48
2023-03-25T00:12:31.557Z,1.40
2023-03-25T00:14:58.314Z,1.38
2023-03-25T00:17:31.443Z,1.63
2023-03-25T00:20:00.253Z,1.20
2023-03-25T00:22:26.841Z,1.23
2023-03-25T00:24:53.264Z,1.50
2023-03-25T00:27:19.799Z,1.77
2023-03-25T00:29:46.312Z,1.20
2023-03-25T00:32:13.746Z,1.10
2023-03-25T00:34:41.690Z,1.30
2023-03-25T00:37:09.171Z,1.40
2023-03-25T00:39:35.842Z,1.60
2023-03-25T00:42:02.503Z,1.27
2023-03-25T00:44:29.091Z,1.50
2023-03-25T00:46:55.306Z,1.38
2023-03-25T00:49:24.928Z,1.40
2023-03-25T00:51:53.092Z,1.67
2023-03-25T00:54:22.094Z,1.42
2023-03-25T00:56:49.069Z,1.48
2023-03-25T00:59:15.369Z,1.17
2023-03-25T01:01:43.276Z,1.42
2023-03-25T01:04:12.566Z,1.40
2023-03-25T01:06:43.854Z,1.33
2023-03-25T01:09:14.060Z,1.35
2023-03-25T01:11:42.440Z,1.30
2023-03-25T01:14:11.951Z,0.90
2023-03-25T01:16:38.488Z,1.10
2023-03-25T01:19:04.691Z,1.10
2023-03-25T01:21:34.097Z,1.08
2023-03-25T01:24:00.371Z,1.02
2023-03-25T01:26:26.592Z,0.93
2023-03-25T01:28:53.913Z,1.15
2023-03-25T01:31:22.899Z,1.27
2023-03-25T01:33:49.459Z,1.50
2023-03-25T01:36:15.873Z,1.27
2023-03-25T01:38:42.259Z,0.95
2023-03-25T01:41:09.558Z,1.20
2023-03-25T01:43:36.120Z,1.00
2023-03-25T01:46:02.647Z,1.10
2023-03-25T01:48:35.652Z,0.93
2023-03-25T01:51:14.279Z,1.15
2023-03-25T01:53:41.218Z,1.20
2023-03-25T01:56:10.362Z,0.98
2023-03-25T01:58:36.747Z,1.17
2023-03-25T02:01:03.599Z,1.30
2023-03-25T02:03:30.727Z,1.02
2023-03-25T02:06:00.699Z,1.27
2023-03-25T02:08:26.962Z,1.20
2023-03-25T02:10:53.224Z,1.33
2023-03-25T02:13:20.226Z,1.50
2023-03-25T02:15:52.421Z,1.70
2023-03-25T02:18:39.103Z,1.65
2023-03-25T02:21:08.206Z,1.85
2023-03-25T02:23:34.396Z,1.40
2023-03-25T02:26:19.289Z,1.60
2023-03-25T02:28:55.952Z,1.60
2023-03-25T02:32:00.605Z,1.15
2023-03-25T02:34:29.166Z,1.50
2023-03-25T02:37:01.488Z,1.38
2023-03-25T02:39:27.715Z,1.40
2023-03-25T02:41:53.943Z,1.50
2023-03-25T02:44:20.155Z,1.52
2023-03-25T02:46:48.879Z,1.63
2023-03-25T02:49:27.578Z,1.73
2023-03-25T02:51:56.464Z,1.10
2023-03-25T02:54:24.853Z,1.15
2023-03-25T02:56:57.319Z,1.33
2023-03-25T02:59:25.612Z,1.30
2023-03-25T03:01:58.305Z,1.30
2023-03-25T03:04:25.978Z,1.42
2023-03-25T03:06:52.709Z,1.30
2023-03-25T03:09:25.411Z,1.83
2023-03-25T03:11:57.857Z,1.52
2023-03-25T03:14:30.793Z,1.92
2023-03-25T03:17:11.280Z,2.10
2023-03-25T03:19:40.559Z,1.73
2023-03-25T03:22:36.061Z,1.90
2023-03-25T03:25:21.817Z,1.30
2023-03-25T03:28:14.440Z,1.77
2023-03-25T03:30:43.768Z,1.70
2023-03-25T03:33:13.406Z,2.35
2023-03-25T03:35:42.790Z,1.63
2023-03-25T03:38:14.525Z,1.65
2023-03-25T03:40:42.884Z,1.50
2023-03-25T03:43:16.120Z,1.60
2023-03-25T03:45:48.316Z,1.58
2023-03-25T03:48:22.136Z,1.58
2023-03-25T03:50:52.757Z,1.42
2023-03-25T03:53:25.165Z,2.07
2023-03-25T03:56:01.548Z,1.50
2023-03-25T03:58:30.383Z,1.60
2023-03-25T04:01:05.769Z,1.77
2023-03-25T04:03:38.606Z,1.45
2023-03-25T04:06:13.286Z,1.80
2023-03-25T04:08:58.683Z,1.38
2023-03-25T04:11:27.899Z,1.50
2023-03-25T04:13:55.628Z,1.33
2023-03-25T04:16:22.596Z,1.77
2023-03-25T04:18:48.859Z,2.00
2023-03-25T04:21:15.283Z,1.58
2023-03-25T04:23:41.491Z,1.67
2023-03-25T04:26:07.751Z,1.95
2023-03-25T04:28:36.584Z,1.52
2023-03-25T04:31:05.409Z,1.52
2023-03-25T04:33:31.985Z,1.20
2023-03-25T04:36:01.732Z,1.83
2023-03-25T04:38:28.099Z,1.77
2023-03-25T04:40:54.880Z,1.40
2023-03-25T04:43:21.275Z,1.30
2023-03-25T04:45:54.422Z,1.25
2023-03-25T04:48:24.075Z,1.38
2023-03-25T04:50:51.656Z,1.30
2023-03-25T04:53:18.396Z,1.40
2023-03-25T04:55:48.000Z,1.63
2023-03-25T04:58:15.836Z,1.25
2023-03-25T05:00:43.420Z,1.50
2023-03-25T05:03:11.300Z,1.38
2023-03-25T05:05:38.113Z,1.55
2023-03-25T05:08:04.511Z,1.60
2023-03-25T05:10:30.790Z,2.15
2023-03-25T05:13:00.841Z,1.77
2023-03-25T05:15:28.096Z,1.30
2023-03-25T05:17:54.333Z,1.42
2023-03-25T05:20:22.690Z,1.30
2023-03-25T05:22:48.908Z,1.30
2023-03-25T05:25:15.673Z,1.58
2023-03-25T05:27:41.865Z,1.48
2023-03-25T05:30:08.439Z,1.27
2023-03-25T05:32:34.699Z,1.20
2023-03-25T05:35:01.817Z,1.30
2023-03-25T05:37:28.344Z,1.27
2023-03-25T05:39:54.578Z,1.55
2023-03-25T05:42:22.788Z,1.40
2023-03-25T05:44:53.168Z,1.85
2023-03-25T05:47:21.589Z,1.90
2023-03-25T05:49:48.650Z,1.98
2023-03-25T05:52:16.769Z,1.63
2023-03-25T05:54:43.626Z,1.73
2023-03-25T05:57:09.924Z,1.50
2023-03-25T05:59:38.711Z,2.13
2023-03-25T06:02:07.498Z,1.67
2023-03-25T06:04:37.763Z,1.90
2023-03-25T06:07:09.214Z,1.70
2023-03-25T06:09:35.882Z,1.98
2023-03-25T06:12:03.804Z,1.70
2023-03-25T06:14:30.039Z,1.83
2023-03-25T06:16:56.804Z,1.83
2023-03-25T06:19:26.682Z,2.03
2023-03-25T06:21:53.447Z,1.58
2023-03-25T06:24:19.792Z,1.75
2023-03-25T06:26:46.010Z,1.50
2023-03-25T06:29:12.304Z,1.70
2023-03-25T06:31:38.632Z,1.95
2023-03-25T06:34:05.393Z,1.80
2023-03-25T06:36:32.213Z,1.80
2023-03-25T06:38:58.498Z,2.03
2023-03-25T06:41:25.518Z,1.85
2023-03-25T06:43:51.741Z,1.90
2023-03-25T06:46:17.972Z,1.80
2023-03-25T06:48:44.220Z,1.58
2023-03-25T06:51:11.052Z,1.95
2023-03-25T06:53:37.380Z,1.75
2023-03-25T06:56:03.701Z,1.80
2023-03-25T06:58:34.723Z,2.05
2023-03-25T07:01:05.781Z,1.50
2023-03-25T07:03:32.517Z,2.05
2023-03-25T07:05:58.782Z,2.22
2023-03-25T07:08:25.137Z,1.55
2023-03-25T07:10:51.438Z,1.70
2023-03-25T07:13:17.712Z,1.77
2023-03-25T07:15:43.989Z,1.70
2023-03-25T07:18:10.253Z,1.48
2023-03-25T07:20:36.473Z,1.85
2023-03-25T07:23:02.814Z,1.33
2023-03-25T07:25:29.037Z,1.50
2023-03-25T07:27:55.413Z,1.73
2023-03-25T07:30:21.658Z,1.58
2023-03-25T07:32:47.905Z,1.65
2023-03-25T07:35:14.241Z,1.58
2023-03-25T07:37:40.461Z,1.55
2023-03-25T07:40:07.042Z,1.50
2023-03-25T07:42:33.393Z,1.50
2023-03-25T07:44:59.595Z,1.65
2023-03-25T07:47:25.970Z,1.05
2023-03-25T07:49:52.218Z,1.80
2023-03-25T07:52:18.464Z,1.73
2023-03-25T07:54:44.708Z,1.30
2023-03-25T07:57:11.022Z,1.60
2023-03-25T07:59:37.242Z,1.13
2023-03-25T08:02:03.597Z,1.30
2023-03-25T08:04:32.635Z,1.58
2023-03-25T08:06:58.819Z,1.48
2023-03-25T08:09:25.077Z,1.90
2023-03-25T08:11:51.348Z,1.55
2023-03-25T08:14:17.574Z,1.30
2023-03-25T08:16:43.894Z,1.80
2023-03-25T08:19:10.958Z,1.70
2023-03-25T08:21:37.176Z,1.20
2023-03-25T08:24:04.770Z,1.63
2023-03-25T08:26:33.476Z,1.60
2023-03-25T08:29:02.387Z,1.35
2023-03-25T08:31:34.112Z,1.60
2023-03-25T08:34:00.778Z,1.83
2023-03-25T08:36:27.629Z,1.40
2023-03-25T08:38:54.056Z,1.65
2023-03-25T08:41:20.291Z,1.58
2023-03-25T08:43:46.712Z,1.58
2023-03-25T08:46:13.062Z,1.83
2023-03-25T08:48:39.680Z,1.60
2023-03-25T08:51:06.303Z,1.95
2023-03-25T08:53:32.519Z,2.00
2023-03-25T08:55:58.972Z,1.88
2023-03-25T08:58:25.867Z,2.33
2023-03-25T09:00:56.345Z,2.85
2023-03-25T09:03:23.335Z,2.00
2023-03-25T09:05:49.820Z,2.55
2023-03-25T09:08:16.634Z,2.00
2023-03-25T09:10:42.882Z,2.30
2023-03-25T09:13:09.170Z,3.05
2023-03-25T09:15:35.616Z,2.42
2023-03-25T09:18:01.913Z,3.13
2023-03-25T09:20:28.209Z,2.75
2023-03-25T09:22:54.388Z,2.28
2023-03-25T09:25:20.626Z,2.35
2023-03-25T09:27:46.834Z,2.20
2023-03-25T09:30:13.258Z,2.28
2023-03-25T09:32:39.461Z,2.22
2023-03-25T09:35:06.195Z,2.42
2023-03-25T09:37:32.477Z,1.88
2023-03-25T09:39:58.681Z,1.77
2023-03-25T09:42:36.673Z,2.05
2023-03-25T09:45:15.407Z,1.92
2023-03-25T09:47:48.255Z,2.08
2023-03-25T09:50:15.851Z,1.92
2023-03-25T09:52:54.409Z,2.22
2023-03-25T09:55:24.260Z,2.20
2023-03-25T09:57:55.034Z,2.22
2023-03-25T10:00:25.890Z,1.80
2023-03-25T10:03:11.683Z,1.88
2023-03-25T10:05:56.706Z,2.20
2023-03-25T10:09:01.992Z,1.80
2023-03-25T10:11:30.756Z,2.25
2023-03-25T10:14:00.152Z,2.00
2023-03-25T10:16:29.370Z,1.70
2023-03-25T10:19:01.820Z,1.80
2023-03-25T10:21:38.016Z,2.08
2023-03-25T10:24:17.554Z,1.88
2023-03-25T10:26:47.333Z,1.67
2023-03-25T10:29:16.025Z,1.92
2023-03-25T10:32:09.878Z,1.95
2023-03-25T10:34:38.864Z,1.90
2023-03-25T10:37:08.087Z,2.10
2023-03-25T10:39:38.033Z,1.65
2023-03-25T10:42:14.355Z,2.40
2023-03-25T10:44:40.634Z,2.28
2023-03-25T10:47:12.641Z,2.20
2023-03-25T10:49:41.456Z,1.70
2023-03-25T10:52:07.932Z,2.22
2023-03-25T10:54:36.276Z,2.13
2023-03-25T10:57:04.948Z,2.40
2023-03-25T10:59:31.554Z,2.30
2023-03-25T11:01:59.055Z,2.10
2023-03-25T11:04:34.489Z,2.20
2023-03-25T11:07:00.716Z,1.90
2023-03-25T11:09:30.905Z,1.70
2023-03-25T11:12:00.221Z,1.70
2023-03-25T11:14:27.706Z,1.88
2023-03-25T11:16:59.610Z,1.77
2023-03-25T11:19:30.662Z,1.70
2023-03-25T11:21:58.535Z,2.13
2023-03-25T11:24:29.910Z,1.75
2023-03-25T11:26:56.233Z,1.95
2023-03-25T11:29:24.621Z,2.00
2023-03-25T11:31:58.790Z,2.03
2023-03-25T11:34:25.188Z,1.92
2023-03-25T11:36:55.582Z,2.15
2023-03-25T11:39:39.495Z,1.77
2023-03-25T11:42:17.788Z,2.20
2023-03-25T11:44:51.181Z,2.17
2023-03-25T11:47:21.557Z,1.95
2023-03-25T11:49:49.244Z,1.90
2023-03-25T11:52:20.939Z,1.98
2023-03-25T11:54:47.361Z,1.88
2023-03-25T11:57:18.453Z,1.58
2023-03-25T11:59:46.529Z,2.13
2023-03-25T12:02:23.987Z,1.80
2023-03-25T12:04:57.685Z,1.70
2023-03-25T12:07:24.369Z,1.60
2023-03-25T12:09:58.291Z,2.33
2023-03-25T12:12:38.056Z,1.85
2023-03-25T12:15:19.269Z,1.85
2023-03-25T12:18:04.080Z,1.48
2023-03-25T12:20:59.820Z,1.95
2023-03-25T12:23:26.271Z,2.20
2023-03-25T12:25:58.507Z,2.20
2023-03-25T12:28:38.094Z,2.05
2023-03-25T12:31:15.281Z,1.95
2023-03-25T12:33:56.452Z,1.63
2023-03-25T12:36:25.875Z,2.53
2023-03-25T12:38:53.206Z,2.25
2023-03-25T12:41:28.702Z,2.15
2023-03-25T12:43:59.348Z,2.25
2023-03-25T12:46:45.871Z,1.83
2023-03-25T12:49:41.484Z,2.08
2023-03-25T12:52:13.597Z,1.80
2023-03-25T12:54:42.674Z,1.88
2023-03-25T12:57:27.476Z,1.80
2023-03-25T13:00:09.653Z,1.70
2023-03-25T13:02:35.879Z,1.38
2023-03-25T13:05:13.935Z,2.00
2023-03-25T13:07:43.467Z,1.80
2023-03-25T13:10:18.610Z,1.83
2023-03-25T13:12:51.715Z,1.80
2023-03-25T13:15:27.439Z,1.80
2023-03-25T13:18:03.165Z,1.75
2023-03-25T13:20:31.995Z,2.53
2023-03-25T13:23:01.954Z,1.70
2023-03-25T13:25:40.790Z,2.17
2023-03-25T13:28:11.492Z,2.15
2023-03-25T13:30:39.027Z,1.80
2023-03-25T13:33:10.595Z,1.60
2023-03-25T13:38:06.647Z,2.28
2023-03-25T13:40:40.542Z,1.77
2023-03-25T13:43:28.827Z,2.05
2023-03-25T13:45:59.619Z,2.45
2023-03-25T13:48:26.185Z,2.78
2023-03-25T13:50:52.705Z,2.03
2023-03-25T13:53:27.494Z,2.42
2023-03-25T13:56:06.229Z,2.10
2023-03-25T13:58:53.804Z,1.60
2023-03-25T14:01:29.397Z,1.98
2023-03-25T14:03:58.645Z,1.88
2023-03-25T14:06:43.624Z,2.13
2023-03-25T14:09:10.059Z,2.00
2023-03-25T14:11:42.615Z,1.80
2023-03-25T14:14:12.252Z,1.98
2023-03-25T14:16:45.189Z,1.90
2023-03-25T14:19:12.683Z,2.05
2023-03-25T14:21:39.428Z,1.75
2023-03-25T14:24:09.850Z,1.58
2023-03-25T14:26:37.642Z,1.70
2023-03-25T14:29:08.094Z,1.90
2023-03-25T14:31:34.326Z,1.95
2023-03-25T14:34:03.720Z,1.77
2023-03-25T14:36:39.070Z,1.63
2023-03-25T14:39:19.258Z,1.77
2023-03-25T14:41:59.314Z,1.40
2023-03-25T14:44:29.353Z,1.73
2023-03-25T14:47:16.197Z,1.60
2023-03-25T14:50:04.701Z,2.38
2023-03-25T14:52:32.449Z,1.92
2023-03-25T14:55:01.534Z,1.90
2023-03-25T14:57:29.434Z,2.45
2023-03-25T14:59:58.604Z,2.72
2023-03-25T15:02:28.400Z,2.58
2023-03-25T15:04:56.144Z,2.65
2023-03-25T15:07:41.270Z,2.38
2023-03-25T15:10:07.827Z,2.72
2023-03-25T15:12:37.330Z,2.33
2023-03-25T15:15:08.445Z,3.03
2023-03-25T15:17:47.326Z,2.35
2023-03-25T15:20:27.335Z,2.50
2023-03-25T15:23:13.492Z,2.17
2023-03-25T15:25:39.746Z,2.15
2023-03-25T15:28:12.758Z,2.67
2023-03-25T15:30:48.185Z,2.45
2023-03-25T15:33:20.331Z,2.50
2023-03-25T15:35:49.369Z,2.50
2023-03-25T15:38:16.418Z,2.63
2023-03-25T15:40:55.240Z,2.53
2023-03-25T15:43:42.497Z,2.40
2023-03-25T15:46:16.449Z,2.17
2023-03-25T15:48:59.508Z,2.10
2023-03-25T15:51:48.683Z,2.25
2023-03-25T15:54:36.873Z,2.33
2023-03-25T15:57:07.238Z,2.25
2023-03-25T15:59:41.498Z,2.67
2023-03-25T16:02:23.007Z,2.00
2023-03-25T16:04:50.498Z,1.60
2023-03-25T16:10:16.112Z,2.10
2023-03-25T16:12:57.973Z,1.92
2023-03-25T16:16:03.407Z,2.60
2023-03-25T16:21:36.399Z,2.08
2023-03-25T16:24:04.914Z,2.00
2023-03-25T16:27:01.671Z,2.63
2023-03-25T16:29:28.039Z,2.60
2023-03-25T16:32:06.781Z,2.35
2023-03-25T16:34:46.732Z,2.40
2023-03-25T16:37:13.478Z,2.22
2023-03-25T16:39:39.744Z,3.00
2023-03-25T16:42:13.268Z,2.03
2023-03-25T16:44:39.487Z,2.28
2023-03-25T16:47:06.453Z,1.60
2023-03-25T16:49:34.544Z,2.05
2023-03-25T16:52:02.191Z,2.65
2023-03-25T16:54:39.070Z,2.00
2023-03-25T16:57:08.459Z,2.97
2023-03-25T16:59:37.923Z,2.70
2023-03-25T17:02:05.118Z,2.17
2023-03-25T17:04:44.451Z,2.00
2023-03-25T17:07:16.172Z,2.00
2023-03-25T17:09:44.036Z,2.17
2023-03-25T17:12:11.603Z,1.80
2023-03-25T17:14:41.554Z,1.70
2023-03-25T17:17:12.296Z,2.20
2023-03-25T17:19:44.707Z,2.22
2023-03-25T17:22:16.350Z,1.70
2023-03-25T17:24:47.967Z,2.05
2023-03-25T17:27:20.744Z,1.55
2023-03-25T17:29:51.010Z,1.73
2023-03-25T17:32:20.677Z,1.60
2023-03-25T17:34:57.281Z,1.70
2023-03-25T17:37:24.975Z,2.35
2023-03-25T17:39:51.356Z,2.00
2023-03-25T17:42:25.575Z,2.30
2023-03-25T17:44:52.897Z,2.45
2023-03-25T17:47:20.284Z,2.10
2023-03-25T17:49:47.093Z,2.13
2023-03-25T17:52:13.696Z,2.13
2023-03-25T17:54:39.980Z,2.75
2023-03-25T17:57:09.082Z,2.50
2023-03-25T17:59:35.515Z,2.08
2023-03-25T18:02:02.942Z,2.25
2023-03-25T18:04:32.125Z,2.47
2023-03-25T18:06:58.369Z,2.30
2023-03-25T18:09:25.046Z,2.03
2023-03-25T18:11:53.093Z,2.08
2023-03-25T18:14:19.953Z,1.85
2023-03-25T18:16:46.377Z,1.50
2023-03-25T18:19:14.609Z,1.30
2023-03-25T18:21:41.165Z,1.85
2023-03-25T18:24:07.947Z,1.60
2023-03-25T18:26:34.586Z,1.35
2023-03-25T18:29:02.155Z,1.40
2023-03-25T18:31:28.460Z,2.75
2023-03-25T18:33:56.177Z,3.00
2023-03-25T18:36:22.598Z,2.65
2023-03-25T18:38:48.891Z,1.88
2023-03-25T18:41:15.426Z,2.78
2023-03-25T18:43:42.017Z,2.10
2023-03-25T18:46:11.986Z,2.40
2023-03-25T18:48:38.315Z,2.42
2023-03-25T18:51:04.722Z,1.67
2023-03-25T18:53:31.370Z,2.25
2023-03-25T18:56:01.558Z,1.40
2023-03-25T18:58:30.801Z,1.50
2023-03-25T19:00:57.535Z,2.10
2023-03-25T19:03:30.340Z,2.45
2023-03-25T19:05:57.656Z,2.15
2023-03-25T19:08:24.018Z,2.90
2023-03-25T19:10:50.510Z,2.85
2023-03-25T19:13:18.768Z,2.50
2023-03-25T19:15:45.664Z,2.63
2023-03-25T19:18:19.510Z,3.40
2023-03-25T19:20:47.081Z,3.15
2023-03-25T19:23:15.647Z,3.28
2023-03-25T19:25:45.734Z,3.10
2023-03-25T19:28:16.690Z,3.17
2023-03-25T19:30:44.958Z,4.10
2023-03-25T19:33:11.848Z,3.60
2023-03-25T19:35:38.655Z,3.42
2023-03-25T19:38:05.742Z,4.40
2023-03-25T19:40:34.034Z,4.13
2023-03-25T19:43:06.418Z,4.30
2023-03-25T19:45:32.943Z,3.50
2023-03-25T19:47:59.226Z,3.85
2023-03-25T19:50:27.438Z,3.72
2023-03-25T19:52:54.211Z,4.00
2023-03-25T19:55:21.382Z,4.57
2023-03-25T19:57:48.125Z,4.30
2023-03-25T20:00:16.515Z,4.55
2023-03-25T20:02:43.775Z,3.50
2023-03-25T20:05:11.561Z,4.15
2023-03-25T20:07:41.841Z,3.78
2023-03-25T20:10:19.073Z,3.97
2023-03-25T20:12:46.688Z,4.20
2023-03-25T20:15:13.182Z,3.47
2023-03-25T20:17:39.875Z,4.25
2023-03-25T20:20:07.953Z,4.00
2023-03-25T20:22:34.449Z,4.03
2023-03-25T20:25:01.316Z,3.63
2023-03-25T20:27:27.881Z,3.45
2023-03-25T20:29:54.528Z,3.03
2023-03-25T20:32:21.661Z,4.53
2023-03-25T20:34:48.566Z,3.72
2023-03-25T20:37:15.847Z,2.92
2023-03-25T20:39:42.645Z,3.60
2023-03-25T20:42:09.416Z,3.60
2023-03-25T20:44:35.767Z,4.43
2023-03-25T20:47:02.602Z,3.88
2023-03-25T20:49:28.863Z,3.65
2023-03-25T20:51:57.075Z,3.28
2023-03-25T20:54:23.750Z,4.10
2023-03-25T20:56:51.706Z,3.92
2023-03-25T20:59:19.129Z,3.88
2023-03-25T21:01:50.367Z,3.70
2023-03-25T21:04:17.567Z,3.28
2023-03-25T21:06:43.875Z,3.92
2023-03-25T21:09:10.775Z,3.53
2023-03-25T21:11:37.429Z,3.85
2023-03-25T21:14:04.240Z,3.67
2023-03-25T21:16:31.024Z,3.72
2023-03-25T21:19:01.641Z,3.38
2023-03-25T21:21:28.848Z,4.13
2023-03-25T21:23:55.220Z,4.13
2023-03-25T21:26:23.684Z,3.72
2023-03-25T21:28:49.966Z,4.05
2023-03-25T21:31:19.405Z,3.60
2023-03-25T21:33:45.829Z,3.53
2023-03-25T21:36:13.219Z,4.22
2023-03-25T21:38:39.643Z,3.97
2023-03-25T21:41:07.422Z,4.18
2023-03-25T21:43:34.629Z,4.55
2023-03-25T21:46:05.285Z,4.25
2023-03-25T21:48:32.363Z,4.00
2023-03-25T21:50:58.951Z,4.15
2023-03-25T21:53:31.146Z,4.32
2023-03-25T21:56:00.233Z,3.72
2023-03-25T21:58:27.296Z,3.65
2023-03-25T22:00:58.293Z,3.88
2023-03-25T22:03:29.415Z,4.07
2023-03-25T22:06:05.726Z,3.40
2023-03-25T22:08:32.024Z,4.05
2023-03-25T22:11:01.996Z,4.07
2023-03-25T22:13:28.335Z,4.18
2023-03-25T22:15:54.724Z,4.03
2023-03-25T22:18:21.199Z,4.03
2023-03-25T22:20:47.456Z,3.38
2023-03-25T22:23:13.661Z,3.47
2023-03-25T22:25:39.887Z,4.18
2023-03-25T22:28:06.149Z,3.58
2023-03-25T22:30:32.416Z,4.72
2023-03-25T22:32:58.689Z,3.85
2023-03-25T22:35:28.555Z,3.70
2023-03-25T22:37:55.616Z,3.47
2023-03-25T22:40:23.256Z,3.72
2023-03-25T22:42:50.149Z,3.30
2023-03-25T22:45:16.705Z,3.55
2023-03-25T22:47:42.940Z,4.80
2023-03-25T22:50:09.674Z,3.83
2023-03-25T22:52:35.919Z,3.83
2023-03-25T22:55:02.225Z,3.42
2023-03-25T22:57:28.626Z,4.20
2023-03-25T22:59:54.856Z,3.67
2023-03-25T23:02:21.303Z,3.63
2023-03-25T23:04:47.597Z,3.80
2023-03-25T23:07:13.876Z,3.83
2023-03-25T23:09:43.718Z,4.10
2023-03-25T23:12:19.865Z,3.42
2023-03-25T23:14:50.244Z,3.42
2023-03-25T23:17:16.544Z,3.83
2023-03-25T23:19:42.771Z,4.65
2023-03-25T23:22:08.994Z,3.28
2023-03-25T23:24:35.987Z,4.05
2023-03-25T23:27:03.029Z,4.32
2023-03-25T23:29:29.240Z,3.95
2023-03-25T23:31:55.513Z,3.75
2023-03-25T23:34:21.715Z,4.15
2023-03-25T23:36:47.932Z,4.53
2023-03-25T23:39:15.581Z,4.07
2023-03-25T23:41:41.842Z,3.33
2023-03-25T23:44:08.067Z,3.90
2023-03-25T23:46:34.458Z,3.78
2023-03-25T23:49:03.841Z,3.95
2023-03-25T23:51:32.864Z,3.60
2023-03-25T23:53:59.146Z,3.58
2023-03-25T23:56:25.505Z,3.63
2023-03-25T23:58:52.141Z,4.15
